Time;durP1;ratioP1;P1;durP2;ratioP2;P2;SDS_P1;SDS_P2;PMS_P1;PMS_P2;Temp;Humidity;BMP_temperature;BMP_pressure;BME280_temperature;BME280_humidity;BME280_pressure;Samples;Min_cycle;Max_cycle;Signal;HPM_P1;HPM_P2
2022/12/03 00:01:39;;;;;;;;;44.25;37.50;;;;;4.82;75.21;101102.69;5076989;27;45370;-61
2022/12/03 00:04:05;;;;;;;;;45.75;36.50;;;;;4.80;74.98;101098.44;5076899;27;45383;-61
2022/12/03 00:06:30;;;;;;;;;59.00;38.25;;;;;4.88;74.70;101112.06;5075879;28;45420;-61
2022/12/03 00:08:56;;;;;;;;;42.75;36.00;;;;;4.85;73.96;101096.06;5076647;28;46038;-61
2022/12/03 00:11:22;;;;;;;;;38.00;34.25;;;;;4.91;74.08;101103.56;5075223;28;45401;-61
2022/12/03 00:13:47;;;;;;;;;37.25;33.25;;;;;4.88;74.12;101098.47;5077164;27;45333;-60
2022/12/03 00:16:13;;;;;;;;;48.00;38.00;;;;;4.68;74.59;101055.22;5076516;27;45355;-61
2022/12/03 00:18:38;;;;;;;;;47.50;35.75;;;;;4.98;73.80;101093.75;5091996;27;46023;-61
2022/12/03 00:21:06;;;;;;;;;43.50;36.25;;;;;5.03;74.18;101095.97;5076500;27;45335;-60
2022/12/03 00:23:32;;;;;;;;;49.00;39.80;;;;;5.02;73.42;101088.81;5076635;27;45374;-61
2022/12/03 00:25:57;;;;;;;;;50.50;33.25;;;;;4.69;73.85;101072.41;5075143;28;45352;-60
2022/12/03 00:28:23;;;;;;;;;48.25;33.50;;;;;4.81;74.25;101087.38;5075803;28;46058;-61
2022/12/03 00:30:48;;;;;;;;;39.75;36.50;;;;;4.84;74.07;101088.91;5076269;27;45874;-59
2022/12/03 00:33:13;;;;;;;;;48.25;40.75;;;;;4.89;73.90;101092.00;5076370;27;45441;-59
2022/12/03 00:35:39;;;;;;;;;41.00;37.00;;;;;4.88;73.82;101084.88;5076175;27;45422;-60
2022/12/03 00:38:04;;;;;;;;;41.75;36.25;;;;;4.84;73.73;101076.19;5074866;28;46488;-60
2022/12/03 00:40:30;;;;;;;;;43.50;34.25;;;;;4.86;74.10;101082.28;5075547;27;45392;-59
2022/12/03 00:42:55;;;;;;;;;46.25;37.75;;;;;4.56;73.36;101032.06;5068477;27;45471;-60
2022/12/03 00:45:21;;;;;;;;;40.00;33.00;;;;;4.62;73.80;101036.84;5050682;27;45533;-59
2022/12/03 00:47:46;;;;;;;;;44.25;36.25;;;;;4.96;73.71;101087.59;5076203;28;45983;-60
2022/12/03 00:50:12;;;;;;;;;44.75;36.00;;;;;4.88;74.12;101093.03;5074790;27;45392;-60
2022/12/03 00:52:37;;;;;;;;;48.00;40.25;;;;;4.80;73.43;101074.81;5076021;27;45293;-59
2022/12/03 00:55:03;;;;;;;;;41.50;37.00;;;;;4.83;73.96;101074.47;5076375;27;45332;-60
2022/12/03 00:57:28;;;;;;;;;38.75;35.50;;;;;4.88;73.99;101079.41;5074458;28;46422;-60
2022/12/03 00:59:54;;;;;;;;;37.00;33.00;;;;;4.82;74.19;101070.06;5075861;27;45431;-61
2022/12/03 01:02:19;;;;;;;;;42.75;36.00;;;;;4.96;73.30;101078.59;5076161;27;45417;-60
2022/12/03 01:04:45;;;;;;;;;44.00;36.25;;;;;4.94;73.48;101078.75;5076006;27;45564;-60
2022/12/03 01:07:11;;;;;;;;;47.50;34.00;;;;;4.64;73.72;101025.81;5075593;27;46028;-60
2022/12/03 01:09:36;;;;;;;;;39.75;28.75;;;;;4.85;73.70;101061.56;5074306;28;45442;-60
2022/12/03 01:12:02;;;;;;;;;44.75;38.00;;;;;4.85;72.94;101050.69;5075690;27;45366;-60
2022/12/03 01:14:27;;;;;;;;;48.00;40.00;;;;;5.05;73.07;101080.31;5076001;28;45578;-60
2022/12/03 01:16:53;;;;;;;;;46.50;37.00;;;;;4.97;73.60;101072.97;5075487;27;45412;-61
2022/12/03 01:19:18;;;;;;;;;37.50;37.00;;;;;4.65;73.05;101027.50;5076145;28;45352;-59
2022/12/03 01:21:48;;;;;;;;;41.25;39.00;;;;;4.80;73.03;101046.78;5090916;27;45379;-59
2022/12/03 01:24:13;;;;;;;;;43.40;35.60;;;;;5.01;72.99;101070.75;5074907;28;45203;-60
2022/12/03 01:26:39;;;;;;;;;38.75;34.50;;;;;5.02;73.80;101080.66;5069164;27;45419;-60
2022/12/03 01:29:04;;;;;;;;;45.50;39.25;;;;;5.07;72.69;101085.59;5054480;28;45289;-61
2022/12/03 01:34:14;;;;;;;;;46.75;33.75;;;;;4.94;73.06;101073.31;5055829;28;45195;-60
2022/12/03 01:36:40;;;;;;;;;44.00;36.75;;;;;5.05;72.84;101068.56;5055159;28;46100;-60
2022/12/03 01:39:05;;;;;;;;;43.20;37.80;;;;;5.07;72.57;101064.66;5055558;28;45304;-60
2022/12/03 01:41:31;;;;;;;;;48.00;35.00;;;;;5.11;72.94;101073.34;5053696;28;45331;-60
2022/12/03 01:43:56;;;;;;;;;55.00;39.25;;;;;4.49;72.00;100972.09;5053946;28;45700;-60
2022/12/03 01:46:23;;;;;;;;;44.25;36.75;;;;;5.00;72.83;101072.66;5054709;28;45397;-60
2022/12/03 01:48:50;;;;;;;;;33.60;32.00;;;;;4.99;72.78;101073.69;5055163;28;45436;-61
2022/12/03 01:51:16;;;;;;;;;37.00;35.20;;;;;5.06;72.67;101073.00;5053834;28;45444;-60
2022/12/03 01:53:42;;;;;;;;;44.50;31.25;;;;;5.01;71.60;101074.34;5055221;28;45417;-60
2022/12/03 01:56:08;;;;;;;;;38.50;33.50;;;;;4.81;72.23;101030.25;5036759;28;47590;-61
2022/12/03 01:58:33;;;;;;;;;43.40;37.00;;;;;5.09;71.93;101069.94;5036908;28;45425;-60
2022/12/03 02:01:00;;;;;;;;;50.00;36.75;;;;;5.16;72.15;101081.84;5055018;28;45403;-61
2022/12/03 02:03:26;;;;;;;;;44.25;32.00;;;;;4.89;72.24;101026.72;5037339;28;45531;-60
2022/12/03 02:05:52;;;;;;;;;43.50;31.50;;;;;5.18;71.72;101074.34;5053516;28;46820;-61
2022/12/03 02:08:27;;;;;;;;;44.00;32.00;;;;;4.91;72.05;101045.59;5054603;28;45359;-60
2022/12/03 02:10:52;;;;;;;;;55.80;40.60;;;;;5.06;72.08;101071.13;5054844;28;45411;-60
2022/12/03 02:13:18;;;;;;;;;46.75;35.75;;;;;5.05;72.11;101080.31;5054746;28;45570;-60
2022/12/03 02:15:43;;;;;;;;;43.00;37.00;;;;;5.08;72.08;101077.22;5054674;28;45429;-60
2022/12/03 02:18:09;;;;;;;;;49.25;36.75;;;;;5.08;71.91;101076.41;5054576;28;45266;-61
2022/12/03 02:20:38;;;;;;;;;43.75;39.00;;;;;5.07;72.02;101070.09;5053363;28;45435;-60
2022/12/03 02:23:09;;;;;;;;;48.00;38.00;;;;;5.08;71.50;101068.25;5036593;28;45592;-61
2022/12/03 02:25:35;;;;;;;;;40.40;37.60;;;;;4.92;71.72;101047.28;5058390;28;46245;-61
2022/12/03 02:28:01;;;;;;;;;50.75;39.50;;;;;4.96;71.62;101063.09;5072181;28;45550;-61
2022/12/03 02:30:27;;;;;;;;;50.60;38.40;;;;;5.08;72.31;101068.25;5054383;28;45457;-61
2022/12/03 02:32:53;;;;;;;;;44.40;35.40;;;;;5.02;71.54;101072.50;5074975;27;45678;-60
2022/12/03 02:35:23;;;;;;;;;46.25;38.00;;;;;5.00;72.04;101072.66;5072697;28;45977;-60
2022/12/03 02:37:51;;;;;;;;;44.40;36.60;;;;;5.01;72.40;101071.63;5071690;27;45219;-60
2022/12/03 02:40:18;;;;;;;;;41.60;34.00;;;;;4.28;71.90;100964.38;5072319;27;46106;-60
2022/12/03 02:42:44;;;;;;;;;43.20;36.80;;;;;4.88;71.80;101063.09;5074374;28;45390;-60
2022/12/03 02:45:16;;;;;;;;;51.40;40.20;;;;;4.79;71.82;101036.91;5056399;28;45446;-61
2022/12/03 02:47:46;;;;;;;;;46.20;39.40;;;;;4.84;72.27;101068.03;5060097;28;45449;-60
2022/12/03 02:50:14;;;;;;;;;39.60;34.20;;;;;4.86;72.10;101068.69;5076977;28;45531;-60
2022/12/03 02:52:40;;;;;;;;;50.60;38.00;;;;;4.84;72.29;101056.28;5076354;28;45318;-60
2022/12/03 02:55:06;;;;;;;;;51.40;38.00;;;;;4.88;71.49;101068.53;5076488;28;45472;-60
2022/12/03 02:57:33;;;;;;;;;40.00;33.25;;;;;4.59;72.21;101021.72;5077378;27;45463;-60
2022/12/03 02:59:58;;;;;;;;;56.20;38.80;;;;;4.52;72.54;101026.13;5078110;27;45380;-60
2022/12/03 03:02:23;;;;;;;;;45.50;36.50;;;;;4.73;72.97;101065.59;5077753;27;45343;-60
2022/12/03 03:04:49;;;;;;;;;41.75;35.75;;;;;4.71;72.84;101041.28;5076149;28;45880;-60
2022/12/03 03:07:14;;;;;;;;;45.50;33.50;;;;;4.78;72.92;101044.22;5076282;28;45323;-60
2022/12/03 03:09:40;;;;;;;;;56.75;43.00;;;;;4.93;73.18;101057.16;5077456;27;45304;-60
2022/12/03 03:12:05;;;;;;;;;57.50;40.50;;;;;4.96;72.30;101059.56;5077705;27;45537;-60
2022/12/03 03:14:31;;;;;;;;;47.25;37.00;;;;;4.88;72.73;101054.94;5077441;28;45326;-60
2022/12/03 03:16:57;;;;;;;;;55.50;42.00;;;;;4.82;73.13;101061.03;5059034;28;45356;-60
2022/12/03 03:19:26;;;;;;;;;55.00;39.25;;;;;4.87;72.81;101072.28;5076233;28;45379;-60
2022/12/03 03:21:52;;;;;;;;;36.80;31.60;;;;;4.91;72.82;101068.19;5076116;28;45389;-60
2022/12/03 03:24:18;;;;;;;;;51.60;39.40;;;;;4.53;73.46;101021.53;5077262;27;45796;-60
2022/12/03 03:26:43;;;;;;;;;54.75;40.25;;;;;4.65;72.97;101054.72;5056916;28;45440;-60
2022/12/03 03:29:09;;;;;;;;;48.25;40.75;;;;;4.47;73.51;101023.03;5055768;28;45337;-61
2022/12/03 03:31:34;;;;;;;;;49.00;40.25;;;;;4.73;73.73;101062.88;5039030;28;45317;-61
2022/12/03 03:34:00;;;;;;;;;46.00;38.75;;;;;4.43;73.11;101005.38;5055474;28;46282;-60
2022/12/03 03:36:25;;;;;;;;;49.00;38.25;;;;;4.72;73.70;101047.59;5055727;28;45395;-61
2022/12/03 03:38:51;;;;;;;;;51.00;38.25;;;;;4.33;73.29;101005.50;5055569;28;45408;-60
2022/12/03 03:41:16;;;;;;;;;48.50;41.00;;;;;4.69;73.44;101058.81;5022119;28;45485;-60
2022/12/03 03:43:43;;;;;;;;;43.25;38.50;;;;;4.68;73.67;101063.38;5056514;28;46331;-60
2022/12/03 03:46:09;;;;;;;;;42.60;37.60;;;;;4.84;72.60;101069.88;5038883;28;45453;-61
2022/12/03 03:48:34;;;;;;;;;54.50;42.50;;;;;4.82;72.91;101051.03;5055762;28;45827;-60
2022/12/03 03:51:02;;;;;;;;;49.50;39.00;;;;;4.51;72.47;101004.53;5055277;28;45671;-61
2022/12/03 03:53:28;;;;;;;;;52.40;40.80;;;;;4.83;72.50;101062.75;5038870;28;46457;-60
2022/12/03 03:55:54;;;;;;;;;46.75;40.00;;;;;3.99;71.98;100916.75;5056553;28;45410;-60
2022/12/03 03:58:19;;;;;;;;;51.60;41.60;;;;;4.81;72.55;101070.22;5056679;28;45334;-60
2022/12/03 04:00:45;;;;;;;;;45.25;31.50;;;;;4.71;72.26;101057.59;5057155;28;45414;-60
2022/12/03 04:03:10;;;;;;;;;42.25;38.00;;;;;4.77;71.93;101072.44;5055071;28;47146;-60
2022/12/03 04:05:36;;;;;;;;;40.50;35.50;;;;;4.65;71.63;101054.72;5038534;28;45267;-60
2022/12/03 04:08:02;;;;;;;;;53.00;40.25;;;;;4.70;71.91;101055.06;5056480;28;45401;-60
2022/12/03 04:13:11;;;;;;;;;45.60;36.20;;;;;4.76;72.06;101054.41;5056257;28;45774;-60
2022/12/03 04:15:36;;;;;;;;;50.75;38.75;;;;;4.79;71.20;101055.94;5056601;28;45167;-60
2022/12/03 04:20:46;;;;;;;;;53.40;39.40;;;;;4.82;71.08;101037.44;5056711;28;45187;-60
2022/12/03 04:23:11;;;;;;;;;57.25;43.00;;;;;4.89;71.74;101051.19;5055904;28;46500;-60
2022/12/03 04:35:41;;;;;;;;;39.20;34.40;;;;;4.80;70.29;101052.22;5076821;28;45340;-61
2022/12/03 04:36:34;;;;;;;;;57.00;41.60;;;;;4.81;70.55;101035.69;5076701;28;45304;-60
2022/12/03 04:38:59;;;;;;;;;46.25;37.00;;;;;4.59;70.62;100994.53;5091959;27;45341;-61
2022/12/03 04:41:25;;;;;;;;;49.00;38.25;;;;;4.28;71.23;100940.75;5076359;27;45349;-61
2022/12/03 04:46:34;;;;;;;;;46.80;34.00;;;;;4.74;70.86;101024.66;5075817;28;45351;-61
2022/12/03 04:48:59;;;;;;;;;40.00;37.25;;;;;4.73;70.94;101039.28;5076146;27;45345;-60
2022/12/03 04:51:25;;;;;;;;;52.25;38.25;;;;;4.68;70.97;101047.06;5076412;27;45590;-60
2022/12/03 04:53:50;;;;;;;;;44.75;40.00;;;;;4.56;72.02;101015.75;5075678;27;45591;-60
2022/12/03 04:56:16;;;;;;;;;50.50;41.00;;;;;4.72;70.34;101028.56;5075443;27;45376;-61
2022/12/03 04:58:41;;;;;;;;;52.50;39.75;;;;;4.78;70.97;101054.22;5075998;27;45278;-60
2022/12/03 05:01:07;;;;;;;;;45.00;38.50;;;;;4.73;70.04;101038.41;5076103;27;45509;-61
2022/12/03 05:03:32;;;;;;;;;51.50;37.00;;;;;4.66;71.21;101040.94;5090046;27;46519;-60
2022/12/03 05:05:58;;;;;;;;;45.25;37.25;;;;;4.41;70.31;100989.22;5075937;27;45562;-62
2022/12/03 05:08:23;;;;;;;;;45.00;34.25;;;;;4.68;71.58;101033.47;5075625;27;45421;-60
2022/12/03 05:10:49;;;;;;;;;40.75;35.75;;;;;4.69;70.17;101026.19;5076101;27;45539;-60
2022/12/03 05:13:14;;;;;;;;;44.50;33.75;;;;;4.69;70.44;101027.00;5075219;27;45491;-60
2022/12/03 05:15:39;;;;;;;;;42.25;37.75;;;;;4.74;70.77;101023.78;5075524;27;45417;-61
2022/12/03 05:18:05;;;;;;;;;38.00;35.25;;;;;4.56;70.25;100994.00;5075392;27;45372;-61
2022/12/03 05:20:42;;;;;;;;;56.75;39.75;;;;;4.56;70.66;100999.44;5075788;27;45339;-61
2022/12/03 05:23:08;;;;;;;;;44.60;35.60;;;;;4.77;70.25;101042.50;5075146;27;45375;-60
2022/12/03 05:25:34;;;;;;;;;47.80;33.00;;;;;4.69;70.42;101032.44;5075335;27;45347;-60
2022/12/03 05:27:59;;;;;;;;;39.25;35.75;;;;;4.60;70.57;101038.91;5063904;27;45357;-60
2022/12/03 05:30:25;;;;;;;;;42.50;37.50;;;;;4.56;70.56;101035.66;5055328;28;45315;-60
2022/12/03 05:32:50;;;;;;;;;43.50;37.75;;;;;4.64;70.87;101034.81;5054904;28;45985;-60
2022/12/03 05:35:16;;;;;;;;;51.75;36.75;;;;;4.60;70.15;101031.56;5031564;28;45284;-60
2022/12/03 05:37:41;;;;;;;;;40.25;31.75;;;;;4.67;70.29;101042.66;5074906;27;45372;-61
2022/12/03 05:40:07;;;;;;;;;44.25;36.00;;;;;4.57;71.01;101018.31;5075405;28;45840;-60
2022/12/03 05:45:18;;;;;;;;;46.00;32.00;;;;;4.69;70.96;101026.19;5075774;28;45463;-59
2022/12/03 05:47:43;;;;;;;;;36.60;31.80;;;;;4.74;70.57;101024.66;5075235;27;45352;-60
2022/12/03 05:50:09;;;;;;;;;40.00;34.50;;;;;4.73;69.68;101020.22;5075917;27;45322;-61
2022/12/03 05:52:34;;;;;;;;;35.50;31.50;;;;;4.74;70.13;101027.38;5074866;27;45438;-60
2022/12/03 05:55:00;;;;;;;;;44.50;36.25;;;;;4.73;69.61;101022.97;5073763;28;45376;-60
2022/12/03 05:57:25;;;;;;;;;47.50;36.25;;;;;4.73;69.67;101032.97;5075473;27;45422;-60
2022/12/03 05:59:51;;;;;;;;;42.00;29.00;;;;;4.58;70.25;101019.16;5075228;27;45551;-60
2022/12/03 06:02:16;;;;;;;;;30.25;23.25;;;;;4.60;70.32;101028.84;5073845;28;46097;-60
2022/12/03 06:04:42;;;;;;;;;37.00;33.00;;;;;4.60;70.42;101025.31;5075049;27;45436;-60
2022/12/03 06:07:07;;;;;;;;;38.25;32.25;;;;;4.69;69.94;101035.16;5075203;28;45358;-60
2022/12/03 06:09:32;;;;;;;;;26.25;21.75;;;;;4.66;70.68;101029.22;5075046;27;45549;-60
2022/12/03 06:11:58;;;;;;;;;33.00;26.25;;;;;4.54;70.96;101002.31;5073330;28;47550;-60
2022/12/03 06:14:23;;;;;;;;;40.50;33.25;;;;;4.47;71.18;100999.44;5076736;28;45301;-60
2022/12/03 06:16:49;;;;;;;;;33.25;26.75;;;;;4.44;71.01;100990.75;5077538;28;45457;-60
2022/12/03 06:19:14;;;;;;;;;42.00;32.00;;;;;4.61;71.39;101003.34;5078732;28;45312;-60
2022/12/03 06:21:40;;;;;;;;;43.75;33.50;;;;;4.40;71.09;100970.34;5078422;28;45690;-60
2022/12/03 06:24:05;;;;;;;;;38.25;31.25;;;;;4.57;71.40;101012.03;5078225;27;45354;-61
2022/12/03 06:26:31;;;;;;;;;38.50;32.50;;;;;4.61;70.58;101013.41;5078855;27;45292;-60
2022/12/03 06:28:56;;;;;;;;;37.50;31.50;;;;;4.68;71.54;101019.00;5078609;27;45355;-61
2022/12/03 06:31:22;;;;;;;;;37.75;30.00;;;;;4.67;71.49;101023.63;5078376;27;45992;-62
2022/12/03 06:33:47;;;;;;;;;39.50;31.75;;;;;4.49;70.66;100977.53;5093952;27;45996;-62
2022/12/03 06:36:12;;;;;;;;;37.00;30.50;;;;;4.77;70.57;101011.72;5059175;27;45398;-61
2022/12/03 06:38:38;;;;;;;;;42.75;32.25;;;;;4.70;70.18;101020.56;5058110;28;45397;-61
2022/12/03 06:41:03;;;;;;;;;37.50;29.75;;;;;4.51;69.87;100991.78;5053428;28;46437;-61
2022/12/03 06:43:29;;;;;;;;;34.50;30.00;;;;;4.64;70.19;101013.06;5057726;28;45456;-61
2022/12/03 06:45:55;;;;;;;;;39.20;35.40;;;;;4.54;70.57;101005.03;5056448;28;45404;-60
2022/12/03 06:48:21;;;;;;;;;37.75;31.25;;;;;4.63;70.41;101024.97;5057713;28;45468;-60
2022/12/03 06:50:46;;;;;;;;;33.25;28.75;;;;;4.71;70.22;101024.97;5056451;28;45486;-61
2022/12/03 06:53:12;;;;;;;;;29.25;24.00;;;;;4.75;69.52;101031.78;5057050;28;45416;-60
2022/12/03 06:55:37;;;;;;;;;38.75;32.75;;;;;4.70;69.21;101026.00;5057614;28;45261;-61
2022/12/03 06:58:03;;;;;;;;;42.00;28.50;;;;;4.73;69.06;101028.41;5057745;28;45311;-61
2022/12/03 07:00:28;;;;;;;;;31.00;28.75;;;;;4.76;70.42;101029.94;5056155;28;45658;-61
2022/12/03 07:02:54;;;;;;;;;35.75;30.50;;;;;4.48;69.02;100987.53;5057451;28;45814;-61
2022/12/03 07:05:19;;;;;;;;;32.75;30.25;;;;;4.80;69.23;101023.13;5057083;28;45149;-61
2022/12/03 07:07:50;;;;;;;;;35.25;31.50;;;;;4.87;69.35;101028.75;5057660;28;45354;-61
2022/12/03 07:10:16;;;;;;;;;31.00;24.20;;;;;4.85;69.39;101030.78;5057027;28;46504;-61
2022/12/03 07:12:42;;;;;;;;;37.60;31.60;;;;;4.86;69.81;101022.47;5057149;28;45496;-60
2022/12/03 07:15:08;;;;;;;;;24.25;21.00;;;;;4.73;69.24;101000.34;5057516;28;45260;-60
2022/12/03 07:17:33;;;;;;;;;31.00;30.00;;;;;4.82;68.95;101031.13;5057266;28;45429;-60
2022/12/03 07:19:59;;;;;;;;;37.25;29.75;;;;;4.51;69.92;100961.03;5056831;28;45562;-60
2022/12/03 07:22:24;;;;;;;;;39.50;32.00;;;;;4.84;69.35;101010.91;5056839;28;45401;-60
2022/12/03 07:24:50;;;;;;;;;36.00;30.75;;;;;4.87;68.17;101026.88;5056610;28;45510;-61
2022/12/03 07:27:15;;;;;;;;;32.00;24.00;;;;;4.79;68.31;101020.59;5057721;28;45325;-60
2022/12/03 07:29:40;;;;;;;;;31.75;27.00;;;;;4.87;68.80;101026.03;5077248;27;45583;-60
2022/12/03 07:32:06;;;;;;;;;42.25;33.75;;;;;4.67;68.81;101001.00;5077369;27;45272;-61
2022/12/03 07:34:31;;;;;;;;;29.75;29.25;;;;;4.77;69.17;101038.94;5076932;27;45312;-61
2022/12/03 07:36:57;;;;;;;;;29.00;27.25;;;;;4.73;69.04;101028.41;5077781;28;45586;-60
2022/12/03 07:39:23;;;;;;;;;32.25;28.00;;;;;4.67;68.74;101014.59;5076522;27;45566;-62
2022/12/03 07:41:48;;;;;;;;;36.00;24.50;;;;;4.83;68.28;101033.69;5077608;27;45446;-61
2022/12/03 07:44:14;;;;;;;;;37.75;27.00;;;;;4.83;68.68;101016.50;5076919;27;45360;-61
2022/12/03 07:46:39;;;;;;;;;36.25;31.75;;;;;4.43;69.23;100959.16;5077646;27;45460;-61
2022/12/03 07:49:05;;;;;;;;;34.50;26.50;;;;;4.89;68.02;101026.72;5077253;27;45737;-63
2022/12/03 07:51:30;;;;;;;;;29.75;26.00;;;;;4.93;67.63;101030.81;5034447;27;45879;-63
2022/12/03 07:53:56;;;;;;;;;28.00;22.25;;;;;4.90;67.99;101041.19;5056989;28;45310;-61
2022/12/03 07:56:21;;;;;;;;;32.00;27.25;;;;;4.93;68.38;101028.09;5057151;28;45452;-61
2022/12/03 07:58:47;;;;;;;;;34.50;24.25;;;;;5.05;67.56;101039.50;5056607;28;46137;-61
2022/12/03 08:01:12;;;;;;;;;33.50;29.25;;;;;4.88;67.88;101036.75;5056927;28;45290;-60
2022/12/03 08:03:37;;;;;;;;;39.50;28.75;;;;;4.86;68.40;101051.53;5056543;28;45266;-60
2022/12/03 08:06:03;;;;;;;;;27.00;25.25;;;;;4.83;67.60;101040.97;5056967;28;45545;-60
2022/12/03 08:08:29;;;;;;;;;32.25;26.25;;;;;4.84;67.02;101038.09;5056669;28;45649;-60
2022/12/03 08:10:55;;;;;;;;;29.00;26.50;;;;;4.81;66.98;101035.69;5056186;28;45317;-60
2022/12/03 08:13:21;;;;;;;;;33.80;26.60;;;;;4.87;68.02;101036.91;5056792;28;45418;-60
2022/12/03 08:15:46;;;;;;;;;27.50;25.00;;;;;4.90;67.39;101027.59;5056635;28;45421;-60
2022/12/03 08:18:16;;;;;;;;;35.25;27.75;;;;;4.91;67.08;101038.28;5056353;28;46363;-60
2022/12/03 08:20:43;;;;;;;;;29.20;22.40;;;;;4.82;67.61;101033.84;5055200;28;45686;-59
2022/12/03 08:23:15;;;;;;;;;27.80;23.60;;;;;4.94;67.23;101050.69;5056670;28;45400;-62
2022/12/03 08:25:41;;;;;;;;;31.80;24.60;;;;;4.93;67.42;101033.53;5056202;28;45293;-56
2022/12/03 08:28:11;;;;;;;;;28.00;22.50;;;;;4.92;67.65;101033.69;5061149;28;45475;-57
2022/12/03 08:30:36;;;;;;;;;31.00;25.00;;;;;4.93;67.57;101043.56;5076306;27;45279;-60
2022/12/03 08:33:12;;;;;;;;;32.00;25.50;;;;;4.91;68.14;101026.56;5076614;27;45217;-58
2022/12/03 08:35:37;;;;;;;;;35.40;29.60;;;;;4.73;67.43;101019.38;5076197;27;45451;-57
2022/12/03 08:38:11;;;;;;;;;39.50;30.50;;;;;4.75;67.81;101037.22;5058106;28;46361;-58
2022/12/03 08:40:39;;;;;;;;;29.00;23.20;;;;;4.83;68.06;101027.38;5075942;28;45462;-59
2022/12/03 08:43:26;;;;;;;;;24.20;17.60;;;;;4.74;68.04;101038.25;5075960;28;45377;-59
2022/12/03 08:45:55;;;;;;;;;30.40;25.20;;;;;4.48;68.39;100982.09;5074790;28;45380;-60
2022/12/03 08:48:28;;;;;;;;;28.60;25.20;;;;;4.76;67.55;101035.38;5071610;27;46640;-60
2022/12/03 08:50:56;;;;;;;;;36.20;27.60;;;;;4.78;68.76;101037.91;5067189;27;45451;-60
2022/12/03 08:53:35;;;;;;;;;26.20;22.60;;;;;4.80;68.50;101039.44;5054764;28;45449;-61
2022/12/03 08:56:05;;;;;;;;;32.20;26.40;;;;;4.85;67.93;101039.81;5071616;27;45426;-59
2022/12/03 08:58:43;;;;;;;;;33.40;27.60;;;;;4.94;68.06;101029.78;5072565;28;46269;-59
2022/12/03 09:01:16;;;;;;;;;31.00;27.00;;;;;4.90;68.18;101038.47;5074118;27;45324;-58
2022/12/03 09:03:48;;;;;;;;;22.80;19.40;;;;;4.87;67.63;101034.19;5048994;28;45496;-63
2022/12/03 09:06:13;;;;;;;;;26.80;25.40;;;;;4.84;68.44;101034.53;5050649;28;45444;-63
2022/12/03 09:08:39;;;;;;;;;23.00;20.50;;;;;4.81;67.91;101040.31;5071216;28;48012;-61
2022/12/03 09:11:04;;;;;;;;;35.25;29.25;;;;;4.69;68.53;101043.31;5071428;28;45922;-57
2022/12/03 09:13:30;;;;;;;;;32.50;27.50;;;;;4.65;68.66;101028.38;5068974;27;45729;-60
2022/12/03 09:15:55;;;;;;;;;29.00;23.25;;;;;4.25;67.93;100971.00;5071885;27;45610;-60
2022/12/03 09:18:21;;;;;;;;;34.75;30.00;;;;;4.66;68.09;101040.94;5072550;28;46713;-60
2022/12/03 09:20:46;;;;;;;;;25.00;22.50;;;;;4.69;68.19;101023.47;5073172;27;45369;-61
2022/12/03 09:23:11;;;;;;;;;26.00;26.00;;;;;4.65;67.92;101030.22;5073502;27;45548;-58
2022/12/03 09:25:37;;;;;;;;;32.50;26.25;;;;;4.59;67.55;101035.31;5072506;28;45395;-61
2022/12/03 09:28:03;;;;;;;;;28.50;21.25;;;;;4.53;68.75;101029.69;5073342;28;45447;-62
2022/12/03 09:30:28;;;;;;;;;28.75;26.00;;;;;4.60;67.91;101028.03;5073624;28;45471;-61
2022/12/03 09:32:54;;;;;;;;;25.25;23.25;;;;;4.69;68.06;101020.75;5073950;27;45379;-58
2022/12/03 09:35:19;;;;;;;;;35.75;27.75;;;;;4.67;68.17;101037.22;5073805;27;45643;-61
2022/12/03 09:37:45;;;;;;;;;33.25;24.25;;;;;4.78;68.49;101041.50;5073250;28;46347;-62
2022/12/03 09:40:11;;;;;;;;;29.00;25.50;;;;;4.83;67.37;101033.69;5072745;28;45407;-61
2022/12/03 09:42:36;;;;;;;;;25.80;24.20;;;;;4.71;67.84;101027.69;5074221;28;45316;-61
2022/12/03 09:45:03;;;;;;;;;30.50;23.25;;;;;4.62;67.91;101017.81;5075666;27;45291;-62
2022/12/03 09:47:28;;;;;;;;;28.80;24.20;;;;;4.72;67.42;101036.72;5073768;28;46649;-62
2022/12/03 09:49:54;;;;;;;;;22.50;13.75;;;;;4.50;67.13;100995.53;5073492;28;45263;-61
2022/12/03 09:52:25;;;;;;;;;24.00;21.25;;;;;4.69;67.73;101032.44;5073830;28;45468;-62
2022/12/03 09:54:51;;;;;;;;;30.80;25.80;;;;;4.81;68.15;101030.25;5074064;28;45524;-61
2022/12/03 09:57:16;;;;;;;;;30.50;28.50;;;;;4.86;67.60;101021.63;5060812;28;46163;-61
2022/12/03 09:59:42;;;;;;;;;23.50;16.00;;;;;4.46;67.67;100951.53;5072034;28;45756;-61
2022/12/03 10:02:19;;;;;;;;;32.00;25.75;;;;;4.75;67.08;101006.44;5073631;27;45400;-61
2022/12/03 10:04:45;;;;;;;;;23.60;21.60;;;;;4.77;67.61;101007.16;5057996;28;45437;-62
2022/12/03 10:07:10;;;;;;;;;28.00;22.50;;;;;4.86;68.28;101014.28;5074440;27;45552;-63
2022/12/03 10:09:36;;;;;;;;;23.50;22.00;;;;;4.58;67.61;100973.81;5074658;27;45416;-61
2022/12/03 10:12:01;;;;;;;;;38.25;24.00;;;;;4.85;67.43;101017.19;5065642;28;45506;-62
2022/12/03 10:14:27;;;;;;;;;33.75;23.25;;;;;4.88;67.04;101019.56;5073291;27;45231;-61
2022/12/03 10:16:53;;;;;;;;;29.00;23.75;;;;;4.87;67.73;101010.56;5070883;27;46355;-61
2022/12/03 10:19:24;;;;;;;;;31.75;25.00;;;;;4.90;67.97;101008.53;5042300;28;45557;-61
2022/12/03 10:21:50;;;;;;;;;27.60;21.20;;;;;4.98;67.52;101006.69;5057227;28;45477;-60
2022/12/03 10:24:15;;;;;;;;;26.00;23.75;;;;;5.00;67.97;101001.91;5053014;28;45507;-60
2022/12/03 10:26:41;;;;;;;;;35.75;29.50;;;;;5.02;67.09;100988.16;5066592;28;45660;-60
2022/12/03 10:29:13;;;;;;;;;28.75;28.75;;;;;4.88;67.81;100960.59;5064092;27;45412;-60
2022/12/03 10:31:39;;;;;;;;;26.60;20.40;;;;;5.10;66.85;100998.16;5064859;28;46333;-59
2022/12/03 10:34:04;;;;;;;;;32.75;26.00;;;;;5.15;67.56;101009.41;5071276;28;45421;-59
2022/12/03 10:36:30;;;;;;;;;29.00;25.75;;;;;5.12;67.69;100996.16;5072696;28;45316;-59
2022/12/03 10:39:10;;;;;;;;;28.25;25.25;;;;;5.07;67.28;100998.53;5073566;27;45476;-60
2022/12/03 10:41:36;;;;;;;;;31.00;24.80;;;;;4.84;67.22;100952.91;5072504;28;45483;-59
2022/12/03 10:44:18;;;;;;;;;26.80;22.60;;;;;5.05;67.25;100993.25;5072319;28;45611;-60
2022/12/03 10:46:44;;;;;;;;;33.80;22.60;;;;;4.82;67.68;100954.97;5065556;27;45809;-60
2022/12/03 10:49:16;;;;;;;;;25.50;22.25;;;;;4.98;66.89;100987.63;5072502;27;45499;-60
2022/12/03 10:51:42;;;;;;;;;29.60;24.20;;;;;4.77;67.55;100951.91;5071386;28;45428;-60
2022/12/03 10:54:19;;;;;;;;;44.75;35.25;;;;;5.04;66.89;100980.66;5072960;27;45364;-59
2022/12/03 10:56:45;;;;;;;;;27.80;20.40;;;;;5.12;67.23;100985.25;5068674;28;45875;-60
2022/12/03 10:59:21;;;;;;;;;37.00;26.75;;;;;5.17;67.80;100987.47;5053082;28;45385;-59
2022/12/03 11:01:47;;;;;;;;;24.80;23.20;;;;;5.24;67.52;100988.47;5050715;28;45632;-61
2022/12/03 11:04:22;;;;;;;;;28.00;23.75;;;;;5.22;67.12;100976.94;5051631;28;45780;-59
2022/12/03 11:06:48;;;;;;;;;31.60;26.40;;;;;5.14;66.52;100972.31;5065196;28;45689;-58
2022/12/03 11:09:19;;;;;;;;;31.00;22.00;;;;;5.11;66.23;100964.50;5069967;27;45402;-60
2022/12/03 11:11:45;;;;;;;;;33.00;25.00;;;;;5.18;66.96;100972.84;5061105;28;45545;-60
2022/12/03 11:14:11;;;;;;;;;25.00;23.00;;;;;5.14;66.22;100966.88;5073693;28;45649;-59
2022/12/03 11:16:39;;;;;;;;;27.75;21.00;;;;;5.12;66.60;100966.22;5074501;28;45529;-60
2022/12/03 11:19:25;;;;;;;;;28.60;25.20;;;;;5.09;66.48;100951.06;5065905;27;45616;-61
2022/12/03 11:22:16;;;;;;;;;30.80;26.80;;;;;5.19;66.32;100956.34;5072007;28;45456;-61
2022/12/03 11:24:41;;;;;;;;;25.60;23.00;;;;;5.22;66.89;100960.59;5074615;27;45512;-60
2022/12/03 11:27:10;;;;;;;;;21.75;21.25;;;;;5.26;66.67;100954.63;5074162;28;46098;-60
2022/12/03 11:29:51;;;;;;;;;27.00;23.60;;;;;5.00;66.88;100917.56;5075372;27;45431;-60
2022/12/03 11:32:46;;;;;;;;;28.00;27.80;;;;;5.32;66.40;100954.97;5075468;27;45363;-60
2022/12/03 11:35:33;;;;;;;;;21.40;21.20;;;;;5.30;66.44;100944.25;5040796;28;45453;-62
2022/12/03 11:38:37;;;;;;;;;29.80;24.00;;;;;5.22;66.72;100961.44;5053841;28;46515;-61